Terminal Aerodrome Forecast
Issued by NWS Birmingham, AL

Home | Current Version | Previous Version | Text Only | Print | Product List | Glossary On
Versions: 1 2 3 4 5 6 7 8 9 10 11 12 13 14 15 16 17
000
FTUS44 KBMX 260600 AAA
TAFBHM
TAF AMD
KBHM 260633Z 2607/2706 26009KT P6SM BKN025 OVC050
     FM260800 30012G18KT P6SM OVC012
     FM262100 28008KT P6SM SKC=

USA.gov is the U.S. government's official web portal to all federal, state and local government web resources and services.